Time;durP1;ratioP1;P1;durP2;ratioP2;P2;SDS_P1;SDS_P2;PMS_P1;PMS_P2;Temp;Humidity;BMP_temperature;BMP_pressure;BME280_temperature;BME280_humidity;BME280_pressure;Samples;Min_cycle;Max_cycle;Signal;HPM_P1;HPM_P2
2020/12/01 00:00:29;;;;;;;7.90;4.72;;;;;;;0.31;100.00;101637.58;1749765;81;21332;-61
2020/12/01 00:02:57;;;;;;;9.15;4.28;;;;;;;0.33;100.00;101623.57;1749685;82;21149;-60
2020/12/01 00:05:25;;;;;;;5.92;3.67;;;;;;;0.33;100.00;101618.71;1752430;81;21168;-60
2020/12/01 00:07:52;;;;;;;6.37;3.30;;;;;;;0.30;100.00;101626.56;1733318;81;21156;-60
2020/12/01 00:10:20;;;;;;;11.85;4.87;;;;;;;0.29;100.00;101666.58;1782705;80;21093;-60
2020/12/01 00:12:49;;;;;;;9.13;4.60;;;;;;;0.33;100.00;101622.67;1790125;80;21379;-60
2020/12/01 00:15:21;;;;;;;6.70;4.03;;;;;;;0.37;100.00;101624.54;1790099;80;21148;-60
2020/12/01 00:17:49;;;;;;;8.03;4.25;;;;;;;0.37;100.00;101613.98;1790265;80;21088;-60
2020/12/01 00:20:18;;;;;;;7.35;3.80;;;;;;;0.34;100.00;101633.72;1790273;80;21156;-60
2020/12/01 00:22:46;;;;;;;6.60;4.28;;;;;;;0.34;100.00;101638.99;1790392;80;21572;-60
2020/12/01 00:25:14;;;;;;;10.15;4.60;;;;;;;0.33;100.00;101596.28;1790288;80;21194;-60
2020/12/01 00:27:41;;;;;;;6.83;4.25;;;;;;;0.35;100.00;101638.13;1763932;80;21058;-60
2020/12/01 00:30:18;;;;;;;8.00;4.87;;;;;;;0.33;100.00;101605.11;1790314;80;21132;-59
2020/12/01 00:32:46;;;;;;;7.03;4.12;;;;;;;0.33;100.00;101610.80;1790339;80;21124;-60
2020/12/01 00:35:17;;;;;;;10.20;4.22;;;;;;;0.33;100.00;101634.13;1790369;80;21124;-59
2020/12/01 00:37:44;;;;;;;9.78;4.28;;;;;;;0.33;100.00;101649.05;1790367;80;21378;-60
2020/12/01 00:40:13;;;;;;;7.20;4.37;;;;;;;0.30;100.00;101618.23;1779754;80;21073;-59
2020/12/01 00:42:40;;;;;;;19.67;4.80;;;;;;;0.31;100.00;101611.20;1758990;81;22966;-59
2020/12/01 00:45:09;;;;;;;7.45;4.42;;;;;;;0.30;100.00;101627.47;1759009;81;21140;-59
2020/12/01 00:47:37;;;;;;;10.98;5.60;;;;;;;0.29;100.00;101633.61;1733251;81;21124;-60
2020/12/01 00:50:09;;;;;;;7.75;5.08;;;;;;;0.31;100.00;101609.87;1759079;81;21370;-59
2020/12/01 00:52:37;;;;;;;10.20;5.33;;;;;;;0.33;100.00;101614.75;1759090;81;21069;-60
2020/12/01 00:55:05;;;;;;;10.90;6.00;;;;;;;0.31;100.00;101593.64;1759077;81;21196;-58
2020/12/01 00:57:34;;;;;;;12.40;5.72;;;;;;;0.30;100.00;101605.45;1759054;81;21194;-60
2020/12/01 01:00:10;;;;;;;13.90;7.17;;;;;;;0.28;100.00;101605.00;1759144;81;21537;-59
2020/12/01 01:02:48;;;;;;;10.37;6.50;;;;;;;0.31;100.00;101629.25;1872976;76;22707;-59
2020/12/01 01:05:15;;;;;;;13.55;7.15;;;;;;;0.24;100.00;101597.02;1840917;78;20985;-59
2020/12/01 01:07:43;;;;;;;14.75;7.35;;;;;;;0.24;100.00;101575.46;1840843;78;21413;-59
2020/12/01 01:10:30;;;;;;;12.33;7.05;;;;;;;0.25;100.00;101593.52;1831918;78;20991;-59
2020/12/01 01:13:00;;;;;;;12.15;6.60;;;;;;;0.26;100.00;101601.44;1828011;78;20964;-59
2020/12/01 01:15:33;;;;;;;15.28;7.25;;;;;;;0.26;100.00;101619.91;1827958;78;20927;-59
2020/12/01 01:18:00;;;;;;;10.10;4.83;;;;;;;0.26;100.00;101594.84;1828079;78;21558;-59
2020/12/01 01:20:29;;;;;;;16.37;6.70;;;;;;;0.27;100.00;101621.69;1827999;78;21332;-59
2020/12/01 01:22:57;;;;;;;12.82;6.08;;;;;;;0.31;100.00;101613.83;1828010;78;21475;-59
2020/12/01 01:25:25;;;;;;;14.63;7.03;;;;;;;0.30;100.00;101615.59;1828038;78;20882;-59
2020/12/01 01:27:52;;;;;;;13.22;6.78;;;;;;;0.30;100.00;101620.88;1827921;78;21102;-59
2020/12/01 01:30:22;;;;;;;12.37;6.97;;;;;;;0.33;100.00;101606.84;1827969;78;21161;-60
2020/12/01 01:32:50;;;;;;;13.38;7.45;;;;;;;0.33;100.00;101585.73;1827975;78;21350;-60
2020/12/01 01:35:18;;;;;;;13.85;7.60;;;;;;;0.35;100.00;101594.59;1827958;78;21181;-60
2020/12/01 01:37:45;;;;;;;13.25;6.15;;;;;;;0.36;100.00;101571.31;1827963;78;21478;-59
2020/12/01 01:40:22;;;;;;;15.53;8.05;;;;;;;0.35;100.00;101580.96;1827979;78;21051;-59
2020/12/01 01:42:50;;;;;;;14.33;7.85;;;;;;;0.37;100.00;101597.71;1827178;78;21062;-59
2020/12/01 01:45:45;;;;;;;14.73;8.33;;;;;;;0.38;100.00;101582.78;1827875;78;20948;-59
2020/12/01 01:48:30;;;;;;;13.57;7.20;;;;;;;0.44;100.00;101580.27;1873018;76;22789;-59
2020/12/01 01:51:13;;;;;;;16.75;8.25;;;;;;;0.40;100.00;101614.05;1840921;78;21438;-59
2020/12/01 01:53:44;;;;;;;13.13;7.45;;;;;;;0.38;100.00;101594.66;1840536;78;21184;-58
2020/12/01 01:56:17;;;;;;;20.17;8.18;;;;;;;0.36;100.00;101638.59;1840788;78;20985;-59
2020/12/01 01:58:44;;;;;;;17.20;8.08;;;;;;;0.36;100.00;101594.61;1840996;78;21021;-58
2020/12/01 02:01:18;;;;;;;17.23;9.03;;;;;;;0.35;100.00;101588.00;1810573;78;21053;-58
2020/12/01 02:03:49;;;;;;;16.40;7.07;;;;;;;0.37;100.00;101607.39;1841133;78;20985;-58
2020/12/01 02:06:30;;;;;;;13.20;7.15;;;;;;;0.38;100.00;101595.53;1840823;78;21355;-58
2020/12/01 02:09:02;;;;;;;16.62;8.00;;;;;;;0.37;100.00;101590.24;1838219;78;20999;-60
2020/12/01 02:11:31;;;;;;;20.62;8.38;;;;;;;0.36;100.00;101597.25;1827923;78;20940;-59
2020/12/01 02:14:10;;;;;;;15.43;7.53;;;;;;;0.34;100.00;101596.33;1827917;77;21148;-59
2020/12/01 02:16:43;;;;;;;17.62;9.00;;;;;;;0.34;100.00;101616.56;1828061;78;20999;-59
2020/12/01 02:19:15;;;;;;;16.80;7.80;;;;;;;0.34;100.00;101612.61;1827941;78;21311;-58
2020/12/01 02:21:43;;;;;;;17.98;8.18;;;;;;;0.35;100.00;101592.83;1827912;78;21063;-58
2020/12/01 02:24:17;;;;;;;19.50;9.85;;;;;;;0.39;100.00;101597.75;1827919;78;21054;-58
2020/12/01 02:26:55;;;;;;;16.73;7.80;;;;;;;0.39;100.00;101601.72;1828073;78;21221;-59
2020/12/01 02:29:27;;;;;;;14.75;7.58;;;;;;;0.36;100.00;101606.48;1827962;78;21134;-59
2020/12/01 02:31:56;;;;;;;16.55;7.92;;;;;;;0.34;100.00;101607.33;1827939;78;21519;-59
2020/12/01 02:34:32;;;;;;;18.12;8.93;;;;;;;0.32;100.00;101610.34;1827880;78;21102;-59
2020/12/01 02:37:01;;;;;;;15.60;8.68;;;;;;;0.34;100.00;101586.23;1827898;78;20924;-59
2020/12/01 02:39:29;;;;;;;18.25;9.50;;;;;;;0.35;100.00;101595.47;1827869;78;21047;-58
2020/12/01 02:41:59;;;;;;;19.82;10.63;;;;;;;0.37;100.00;101597.71;1839133;78;21085;-59
2020/12/01 02:44:27;;;;;;;16.82;8.28;;;;;;;0.38;100.00;101621.05;1840754;78;21196;-59
2020/12/01 02:46:56;;;;;;;20.68;9.05;;;;;;;0.37;100.00;101595.07;1842310;77;21139;-59
2020/12/01 02:49:24;;;;;;;22.17;10.40;;;;;;;0.35;100.00;101619.66;1846691;77;21076;-58
2020/12/01 02:51:52;;;;;;;17.00;8.80;;;;;;;0.35;100.00;101610.43;1846820;77;21074;-58
2020/12/01 02:54:19;;;;;;;17.75;8.90;;;;;;;0.37;100.00;101591.56;1846791;77;21029;-58
2020/12/01 02:56:47;;;;;;;17.48;8.85;;;;;;;0.37;100.00;101583.64;1846730;77;21471;-58
2020/12/01 02:59:14;;;;;;;20.62;8.88;;;;;;;0.38;100.00;101599.94;1846138;77;21159;-58
2020/12/01 03:01:43;;;;;;;20.88;10.70;;;;;;;0.38;100.00;101628.95;1846149;77;21131;-58
2020/12/01 03:04:11;;;;;;;19.80;9.43;;;;;;;0.36;100.00;101595.06;1846146;77;20930;-58
2020/12/01 03:06:38;;;;;;;19.50;9.85;;;;;;;0.35;100.00;101599.87;1846205;77;21041;-58
2020/12/01 03:09:09;;;;;;;22.67;9.68;;;;;;;0.35;100.00;101590.64;1842269;77;21440;-58
2020/12/01 03:11:38;;;;;;;23.07;11.65;;;;;;;0.35;100.00;101595.92;1830206;77;20980;-58
2020/12/01 03:14:06;;;;;;;18.70;10.13;;;;;;;0.37;100.00;101602.11;1830195;78;21140;-58
2020/12/01 03:16:34;;;;;;;21.62;11.33;;;;;;;0.36;100.00;101612.20;1830211;78;21090;-59
2020/12/01 03:19:02;;;;;;;22.67;11.43;;;;;;;0.37;100.00;101595.52;1830288;78;20920;-59
2020/12/01 03:21:29;;;;;;;20.32;9.05;;;;;;;0.37;100.00;101602.98;1830201;78;21380;-59
2020/12/01 03:23:57;;;;;;;19.37;9.90;;;;;;;0.35;100.00;101591.96;1830186;77;20932;-58
2020/12/01 03:26:25;;;;;;;25.50;11.30;;;;;;;0.35;100.00;101611.75;1830230;77;20983;-59
2020/12/01 03:28:52;;;;;;;26.57;12.45;;;;;;;0.35;100.00;101594.59;1830194;77;21011;-59
2020/12/01 03:31:21;;;;;;;20.32;10.00;;;;;;;0.37;100.00;101591.56;1830236;77;21051;-58
2020/12/01 03:33:48;;;;;;;17.05;9.10;;;;;;;0.37;100.00;101621.91;1830247;78;22083;-58
2020/12/01 03:36:17;;;;;;;22.00;10.25;;;;;;;0.34;100.00;101632.39;1830126;78;20984;-58
2020/12/01 03:38:44;;;;;;;18.17;9.65;;;;;;;0.35;100.00;101604.70;1830245;78;21110;-58
2020/12/01 03:41:12;;;;;;;21.87;9.85;;;;;;;0.37;100.00;101606.07;1830166;78;21027;-58
2020/12/01 03:43:40;;;;;;;20.10;11.20;;;;;;;0.36;100.00;101592.42;1830216;77;21086;-58
2020/12/01 03:46:08;;;;;;;20.30;10.23;;;;;;;0.38;100.00;101634.23;1830207;78;21346;-58
2020/12/01 03:48:35;;;;;;;20.08;9.50;;;;;;;0.39;100.00;101639.97;1830330;78;21121;-57
2020/12/01 03:51:03;;;;;;;19.12;9.78;;;;;;;0.36;100.00;101623.63;1830479;77;21023;-58
2020/12/01 03:53:31;;;;;;;18.15;10.00;;;;;;;0.36;100.00;101628.91;1830483;78;21070;-58
2020/12/01 03:55:58;;;;;;;23.42;11.22;;;;;;;0.37;100.00;101612.67;1830454;78;21031;-58
2020/12/01 03:58:26;;;;;;;18.15;9.85;;;;;;;0.38;100.00;101603.89;1830592;78;21189;-58
2020/12/01 04:00:53;;;;;;;26.15;12.30;;;;;;;0.35;100.00;101640.33;1830653;77;22364;-58
2020/12/01 04:03:21;;;;;;;29.27;11.63;;;;;;;0.34;100.00;101617.44;1830603;78;21516;-58
2020/12/01 04:05:48;;;;;;;22.65;10.68;;;;;;;0.35;100.00;101620.98;1830556;78;21387;-57
2020/12/01 04:08:16;;;;;;;19.30;10.18;;;;;;;0.37;100.00;101632.45;1830560;78;21062;-58
2020/12/01 04:10:43;;;;;;;23.92;10.45;;;;;;;0.37;100.00;101621.45;1847510;77;21355;-57
2020/12/01 04:13:12;;;;;;;19.48;8.20;;;;;;;0.37;100.00;101616.63;1848908;77;20946;-58
2020/12/01 04:15:39;;;;;;;20.35;10.00;;;;;;;0.37;100.00;101624.54;1849021;77;21091;-57
2020/12/01 04:18:07;;;;;;;20.70;9.40;;;;;;;0.34;100.00;101616.12;1848902;77;20973;-57
2020/12/01 04:20:34;;;;;;;20.77;10.00;;;;;;;0.34;100.00;101637.23;1849009;77;21092;-58
2020/12/01 04:23:02;;;;;;;27.00;12.90;;;;;;;0.34;100.00;101637.67;1848978;77;21681;-58
2020/12/01 04:25:29;;;;;;;26.97;11.43;;;;;;;0.34;100.00;101622.72;1848867;77;20929;-57
2020/12/01 04:27:57;;;;;;;25.50;10.65;;;;;;;0.36;100.00;101623.63;1848941;77;21056;-57
2020/12/01 04:30:25;;;;;;;21.12;10.85;;;;;;;0.36;100.00;101630.67;1848897;77;21005;-58
2020/12/01 04:32:53;;;;;;;25.35;12.23;;;;;;;0.36;100.00;101623.63;1849069;77;21135;-58
2020/12/01 04:35:23;;;;;;;22.82;11.12;;;;;;;0.37;100.00;101621.91;1849067;77;21697;-57
2020/12/01 04:37:56;;;;;;;28.47;14.28;;;;;;;0.38;100.00;101610.48;1848831;77;20953;-57
2020/12/01 04:40:26;;;;;;;23.83;10.98;;;;;;;0.40;100.00;101611.41;1841599;77;21024;-58
2020/12/01 04:43:02;;;;;;;23.45;12.35;;;;;;;0.39;100.00;101599.08;1791377;79;21163;-58
2020/12/01 04:45:29;;;;;;;20.32;10.78;;;;;;;0.40;100.00;101611.41;1815687;79;21048;-58
2020/12/01 04:48:06;;;;;;;25.05;11.55;;;;;;;0.40;100.00;101614.05;1811717;79;21346;-57
2020/12/01 04:50:36;;;;;;;;;;;;;;;0.41;100.00;101621.10;1809868;79;21588;-58
2020/12/01 04:53:31;;;;;;;24.23;11.20;;;;;;;0.43;100.00;101629.94;1844773;76;22651;-58
2020/12/01 04:56:31;;;;;;;25.77;11.35;;;;;;;0.34;100.00;101637.23;1814792;79;20942;-58
2020/12/01 04:59:15;;;;;;;22.80;11.88;;;;;;;0.34;100.00;101637.67;1814685;79;21529;-57
2020/12/01 05:02:26;;;;;;;22.48;10.93;;;;;;;0.34;100.00;101631.08;1814834;79;21062;-58
2020/12/01 05:05:16;;;;;;;27.20;12.53;;;;;;;0.31;100.00;101603.28;1814692;78;21029;-57
2020/12/01 05:08:20;;;;;;;23.62;10.50;;;;;;;0.31;100.00;101592.31;1814851;79;21623;-57
2020/12/01 05:10:47;;;;;;;28.42;13.35;;;;;;;0.32;100.00;101634.08;1810508;79;21023;-58
2020/12/01 05:13:22;;;;;;;31.23;11.78;;;;;;;0.34;100.00;101604.69;1810388;79;21331;-58
2020/12/01 05:15:54;;;;;;;29.82;13.25;;;;;;;0.31;100.00;101608.55;1733579;81;20988;-58
2020/12/01 05:18:28;;;;;;;28.17;12.10;;;;;;;0.31;100.00;101619.11;1769414;81;20960;-58
2020/12/01 05:20:59;;;;;;;24.15;10.70;;;;;;;0.33;100.00;101622.67;1769485;81;21109;-58
2020/12/01 05:23:43;;;;;;;29.02;13.48;;;;;;;0.33;100.00;101611.70;1769341;81;21118;-58
2020/12/01 05:26:14;;;;;;;24.52;13.32;;;;;;;0.35;100.00;101615.70;1733865;82;21386;-58
2020/12/01 05:28:53;;;;;;;24.87;12.07;;;;;;;0.33;100.00;101610.80;1769286;81;20944;-57
2020/12/01 05:31:27;;;;;;;22.80;10.53;;;;;;;0.33;100.00;101613.44;1733597;82;21498;-58
2020/12/01 05:34:06;;;;;;;27.87;14.37;;;;;;;0.35;100.00;101614.39;1739626;81;21154;-58
2020/12/01 05:36:36;;;;;;;25.40;12.15;;;;;;;0.34;100.00;101603.37;1731776;82;21178;-58
2020/12/01 05:39:19;;;;;;;30.57;13.78;;;;;;;0.33;100.00;101632.81;1769351;81;22332;-59
2020/12/01 05:42:05;;;;;;;29.27;10.93;;;;;;;0.33;100.00;101594.55;1724297;82;21144;-58
2020/12/01 05:44:34;;;;;;;27.10;12.75;;;;;;;0.32;100.00;101616.52;1740201;82;20930;-58
2020/12/01 05:47:07;;;;;;;28.47;14.05;;;;;;;0.30;100.00;101622.61;1740168;82;20973;-58
2020/12/01 05:49:50;;;;;;;34.23;12.25;;;;;;;0.28;100.00;101623.47;1740453;82;21098;-58
2020/12/01 05:52:28;;;;;;;27.80;13.68;;;;;;;0.28;100.00;101606.31;1739979;82;21444;-59
2020/12/01 05:55:20;;;;;;;23.05;11.00;;;;;;;0.28;100.00;101631.38;1740086;82;21151;-58
2020/12/01 05:58:11;;;;;;;27.15;12.47;;;;;;;0.30;100.00;101646.34;1740263;82;21207;-58
2020/12/01 06:00:41;;;;;;;28.15;14.18;;;;;;;0.34;100.00;101607.33;1685874;82;21576;-59
2020/12/01 06:03:31;;;;;;;30.48;12.90;;;;;;;0.40;100.00;101603.49;1739990;82;21456;-59
2020/12/01 06:05:59;;;;;;;27.75;13.72;;;;;;;0.42;100.00;101617.61;1739556;82;21388;-59
2020/12/01 06:08:59;;;;;;;26.30;12.05;;;;;;;0.43;100.00;101625.53;1710560;82;21029;-58
2020/12/01 06:11:52;;;;;;;24.23;10.80;;;;;;;0.41;100.00;101625.94;1739647;82;21482;-58
2020/12/01 06:14:59;;;;;;;29.37;12.60;;;;;;;0.41;100.00;101639.12;1739665;82;20939;-58
2020/12/01 06:17:53;;;;;;;33.55;14.03;;;;;;;0.42;100.00;101642.67;1739250;81;21172;-58
2020/12/01 06:20:42;;;;;;;24.75;11.83;;;;;;;0.44;100.00;101650.19;1739562;82;21154;-58
2020/12/01 06:23:31;;;;;;;27.17;12.57;;;;;;;0.52;100.00;101658.27;1872966;76;22649;-59
2020/12/01 06:26:40;;;;;;;25.02;11.20;;;;;;;0.49;100.00;101627.87;1840795;78;21009;-58
2020/12/01 06:29:34;;;;;;;23.90;10.58;;;;;;;0.50;100.00;101616.45;1840865;78;21185;-58
2020/12/01 06:32:33;;;;;;;30.85;12.90;;;;;;;0.48;100.00;101646.75;1841045;78;20937;-60
2020/12/01 06:35:43;;;;;;;24.72;13.08;;;;;;;0.47;100.00;101637.05;1840672;78;20992;-59
2020/12/01 06:38:32;;;;;;;21.68;10.10;;;;;;;0.49;100.00;101615.98;1840679;78;21012;-59
2020/12/01 06:41:13;;;;;;;25.48;12.00;;;;;;;0.51;100.00;101657.37;1840834;77;20926;-58
2020/12/01 06:43:48;;;;;;;32.45;14.25;;;;;;;0.52;100.00;101624.84;1840819;78;21686;-59
2020/12/01 06:46:24;;;;;;;34.85;14.05;;;;;;;0.55;100.00;101620.97;1840948;78;21495;-60
2020/12/01 06:48:55;;;;;;;30.08;14.23;;;;;;;0.56;100.00;101629.34;1840874;78;21001;-60
2020/12/01 06:51:36;;;;;;;24.55;12.35;;;;;;;0.61;100.00;101633.83;1785946;78;20941;-59
2020/12/01 06:54:11;;;;;;;26.30;11.33;;;;;;;0.61;100.00;101628.55;1769029;79;21092;-60
2020/12/01 06:56:39;;;;;;;21.60;10.98;;;;;;;0.61;100.00;101623.27;1807389;79;21358;-59
2020/12/01 06:59:12;;;;;;;35.78;13.85;;;;;;;0.59;100.00;101634.23;1807587;79;21112;-58
2020/12/01 07:01:40;;;;;;;24.00;11.70;;;;;;;0.61;100.00;101628.55;1807608;79;21164;-60
2020/12/01 07:04:16;;;;;;;30.55;12.98;;;;;;;0.63;100.00;101622.87;1807591;78;21116;-59
2020/12/01 07:06:56;;;;;;;34.20;13.13;;;;;;;0.63;100.00;101610.98;1807650;79;21020;-59
2020/12/01 07:09:46;;;;;;;27.42;12.63;;;;;;;0.65;100.00;101610.58;1810775;78;21297;-60
2020/12/01 07:12:25;;;;;;;33.05;12.98;;;;;;;0.71;100.00;101618.62;1807822;79;21493;-59
2020/12/01 07:15:04;;;;;;;29.95;11.57;;;;;;;0.69;100.00;101615.06;1807754;79;21127;-59
2020/12/01 07:17:49;;;;;;;25.57;11.75;;;;;;;0.69;100.00;101625.62;1807761;78;21148;-60
2020/12/01 07:20:40;;;;;;;32.05;12.82;;;;;;;0.69;100.00;101647.64;1807814;79;21044;-59
2020/12/01 07:23:33;;;;;;;28.80;12.33;;;;;;;0.73;100.00;101627.91;1812356;78;22257;-59
2020/12/01 07:26:12;;;;;;;28.80;12.80;;;;;;;0.75;100.00;101620.45;1813553;79;20989;-59
2020/12/01 07:29:11;;;;;;;33.70;12.15;;;;;;;0.75;100.00;101613.84;1800796;79;21135;-59
2020/12/01 07:31:39;;;;;;;33.15;13.75;;;;;;;0.75;100.00;101626.17;1813456;79;21213;-59
2020/12/01 07:34:21;;;;;;;32.45;12.50;;;;;;;0.79;100.00;101610.84;1812999;78;21131;-59
2020/12/01 07:36:52;;;;;;;31.68;13.38;;;;;;;0.83;100.00;101620.61;1812911;79;21249;-59
2020/12/01 07:39:27;;;;;;;45.23;13.80;;;;;;;0.85;100.00;101615.83;1812875;79;21099;-59
2020/12/01 07:41:57;;;;;;;;;;;;;;;0.89;100.00;101611.92;1815567;79;21056;-59
2020/12/01 07:44:27;;;;;;;26.00;12.03;;;;;;;0.91;100.00;101624.30;1785928;79;20313;-59
2020/12/01 07:47:14;;;;;;;34.10;14.43;;;;;;;0.90;100.00;101621.62;1812861;79;21056;-60
2020/12/01 07:49:42;;;;;;;34.48;13.68;;;;;;;0.90;100.00;101625.58;1812093;79;23505;-59
2020/12/01 07:52:21;;;;;;;25.52;12.30;;;;;;;0.93;100.00;101626.95;1812203;79;21173;-59
2020/12/01 07:54:59;;;;;;;26.82;13.18;;;;;;;0.90;100.00;101642.33;1813066;77;21160;-59
2020/12/01 07:57:26;;;;;;;39.60;14.75;;;;;;;0.91;100.00;101628.27;1812882;79;20915;-59
2020/12/01 07:59:54;;;;;;;26.17;12.68;;;;;;;0.94;100.00;101624.77;1812989;79;21434;-60
2020/12/01 08:02:27;;;;;;;31.27;12.07;;;;;;;0.97;100.00;101619.54;1812845;78;21187;-59
2020/12/01 08:05:05;;;;;;;27.45;11.60;;;;;;;0.98;100.00;101629.24;1831024;76;21174;-60
2020/12/01 08:07:35;;;;;;;28.95;12.60;;;;;;;0.97;100.00;101620.45;1844029;77;21127;-60
2020/12/01 08:10:08;;;;;;;27.90;13.32;;;;;;;0.99;100.00;101621.78;1829848;77;21093;-60
2020/12/01 08:12:46;;;;;;;28.90;13.40;;;;;;;1.02;100.00;101640.35;1888769;76;22660;-59
2020/12/01 08:15:20;;;;;;;35.28;13.00;;;;;;;0.98;100.00;101647.73;1859854;77;21544;-58
2020/12/01 08:17:48;;;;;;;24.20;11.15;;;;;;;0.99;100.00;101627.06;1860413;77;21364;-59
2020/12/01 08:20:23;;;;;;;25.32;11.55;;;;;;;1.01;100.00;101631.97;1859990;77;21615;-58
2020/12/01 08:23:07;;;;;;;33.65;13.20;;;;;;;1.02;100.00;101631.52;1858820;77;21510;-58
2020/12/01 08:25:36;;;;;;;28.17;12.00;;;;;;;1.02;100.00;101632.84;1856014;77;21581;-59
2020/12/01 08:28:26;;;;;;;34.10;14.25;;;;;;;1.02;100.00;101632.84;1857870;77;20908;-59
2020/12/01 08:31:04;;;;;;;37.45;14.43;;;;;;;1.03;100.00;101615.72;1847509;77;21232;-59
2020/12/01 08:34:33;;;;;;;31.35;13.13;;;;;;;1.06;100.00;101624.11;1790050;80;21130;-58
2020/12/01 08:37:24;;;;;;;33.95;14.33;;;;;;;1.06;100.00;101622.38;1789969;80;21007;-58
2020/12/01 08:40:18;;;;;;;24.12;11.33;;;;;;;1.08;100.00;101646.16;1790028;80;21158;-59
2020/12/01 08:43:11;;;;;;;28.40;11.38;;;;;;;1.06;100.00;101651.42;1789974;80;21193;-59
2020/12/01 08:45:45;;;;;;;29.15;12.03;;;;;;;1.05;100.00;101632.90;1789986;79;21326;-58
2020/12/01 08:48:38;;;;;;;25.30;12.43;;;;;;;1.05;100.00;101632.90;1790056;80;21075;-60
2020/12/01 08:51:26;;;;;;;35.05;14.33;;;;;;;1.07;100.00;101608.72;1789825;79;21201;-59
2020/12/01 08:54:15;;;;;;;30.82;13.18;;;;;;;1.07;100.00;101595.09;1759279;79;21130;-59
2020/12/01 08:56:58;;;;;;;25.77;12.78;;;;;;;1.10;100.00;101591.19;1789860;80;21118;-59
2020/12/01 08:59:54;;;;;;;28.87;12.35;;;;;;;1.12;100.00;101607.95;1789916;80;21453;-59
2020/12/01 09:02:22;;;;;;;38.28;13.15;;;;;;;1.12;100.00;101589.45;1789871;80;20936;-59
2020/12/01 09:05:00;;;;;;;27.73;11.40;;;;;;;1.11;100.00;101585.48;1789966;80;21028;-59
2020/12/01 09:10:29;;;;;;;25.90;12.40;;;;;;;1.13;100.00;101599.61;1889350;76;20982;-60
2020/12/01 09:21:51;;;;;;;21.97;10.58;;;;;;;1.11;100.00;101578.44;1826436;78;21339;-59
2020/12/01 09:23:35;;;;;;;32.93;12.98;;;;;;;1.12;100.00;101588.14;1803813;79;21044;-59
2020/12/01 09:26:16;;;;;;;33.65;13.08;;;;;;;1.16;100.00;101604.03;1807536;79;21527;-59
2020/12/01 09:28:52;;;;;;;36.68;13.60;;;;;;;1.16;100.00;101591.73;1747385;82;21175;-59
2020/12/01 09:31:21;;;;;;;44.42;15.48;;;;;;;1.18;100.00;101584.72;1755282;81;21188;-60
2020/12/01 09:33:48;;;;;;;31.93;14.45;;;;;;;1.20;100.00;101581.67;1755229;81;21379;-59
2020/12/01 09:36:20;;;;;;;39.23;15.83;;;;;;;1.23;100.00;101569.83;1755248;81;21140;-58
2020/12/01 09:38:48;;;;;;;28.05;12.35;;;;;;;1.27;100.00;101571.66;1755353;81;20990;-58
2020/12/01 09:41:18;;;;;;;33.00;13.58;;;;;;;1.31;100.00;101562.03;1755414;81;21125;-60
2020/12/01 09:44:15;;;;;;;38.25;16.85;;;;;;;1.33;100.00;101576.16;1755798;81;21072;-59
2020/12/01 09:46:41;;;;;;;35.17;15.75;;;;;;;1.34;100.00;101577.94;1753694;81;21549;-59
2020/12/01 09:49:03;;;;;;;42.75;16.60;;;;;;;1.37;100.00;101586.36;1754945;81;21156;-59
2020/12/01 09:51:31;;;;;;;33.48;14.98;;;;;;;1.37;100.00;101589.87;1747828;81;20939;-59
2020/12/01 09:57:02;;;;;;;36.33;16.77;;;;;;;1.45;100.00;101590.00;1889322;76;22601;-58
2020/12/01 10:05:09;;;;;;;39.70;15.80;;;;;;;1.41;100.00;101577.16;1860185;77;20913;-60
2020/12/01 10:10:16;;;;;;;48.33;16.70;;;;;;;1.43;100.00;101585.13;1853544;77;20916;-59
2020/12/01 10:36:18;;;;;;;40.65;16.67;;;;;;;1.48;100.00;101570.67;1840909;77;22070;-59
2020/12/01 10:38:46;;;;;;;47.93;16.95;;;;;;;1.51;100.00;101578.64;1813772;78;21131;-59
2020/12/01 10:41:14;;;;;;;43.08;16.37;;;;;;;1.52;100.00;101589.67;1840851;77;21017;-58
2020/12/01 10:43:42;;;;;;;38.17;16.35;;;;;;;1.53;100.00;101580.88;1840768;78;21072;-59
2020/12/01 10:46:12;;;;;;;41.05;18.05;;;;;;;1.56;100.00;101575.63;1840944;78;21029;-60
2020/12/01 10:48:40;;;;;;;45.05;19.15;;;;;;;1.56;100.00;101579.19;1840847;78;21473;-60
2020/12/01 10:51:08;;;;;;;60.50;18.12;;;;;;;1.57;100.00;101581.38;1840759;78;21155;-59
2020/12/01 10:53:36;;;;;;;54.80;18.57;;;;;;;1.57;100.00;101584.02;1809797;78;21563;-60
2020/12/01 10:56:03;;;;;;;55.70;18.70;;;;;;;1.57;100.00;101576.09;1840747;78;20994;-59
2020/12/01 10:58:31;;;;;;;44.45;18.48;;;;;;;1.58;100.00;101579.19;1840810;77;21170;-59
2020/12/01 11:01:01;;;;;;;45.78;19.02;;;;;;;1.59;100.00;101562.46;1840830;78;22352;-60
2020/12/01 11:03:29;;;;;;;41.77;17.07;;;;;;;1.63;100.00;101563.41;1840753;78;21544;-59
2020/12/01 11:05:57;;;;;;;38.40;16.90;;;;;;;1.64;100.00;101571.80;1840639;77;20993;-60
2020/12/01 11:08:24;;;;;;;51.18;18.32;;;;;;;1.66;100.00;101572.70;1815044;78;21665;-60
2020/12/01 11:10:52;;;;;;;42.70;18.05;;;;;;;1.66;100.00;101561.71;1776712;80;21071;-59
2020/12/01 11:13:20;;;;;;;45.98;17.60;;;;;;;1.66;100.00;101562.13;1757058;81;22376;-60
2020/12/01 11:15:48;;;;;;;35.10;16.20;;;;;;;1.64;100.00;101571.34;1777188;80;20965;-60
2020/12/01 11:18:15;;;;;;;46.85;19.40;;;;;;;1.63;100.00;101562.09;1762049;81;21117;-58
2020/12/01 11:20:43;;;;;;;42.53;17.42;;;;;;;1.64;100.00;101566.05;1774075;80;21135;-58
2020/12/01 11:23:10;;;;;;;41.23;15.93;;;;;;;1.67;100.00;101571.42;1762749;81;21084;-59
2020/12/01 11:25:38;;;;;;;46.15;18.52;;;;;;;1.68;100.00;101563.03;1774292;80;21546;-59
2020/12/01 11:28:06;;;;;;;39.20;15.80;;;;;;;1.66;100.00;101565.67;1762520;81;20990;-60
2020/12/01 11:30:34;;;;;;;45.10;17.37;;;;;;;1.66;100.00;101548.49;1773677;80;21059;-60
2020/12/01 11:33:02;;;;;;;41.77;17.35;;;;;;;1.65;100.00;101549.33;1762308;81;20935;-59
2020/12/01 11:35:29;;;;;;;43.05;18.20;;;;;;;1.65;100.00;101554.61;1768356;80;21018;-59
2020/12/01 11:37:57;;;;;;;51.68;18.35;;;;;;;1.67;100.00;101567.88;1737005;81;21376;-59
2020/12/01 11:40:24;;;;;;;46.95;16.90;;;;;;;1.66;100.00;101551.14;1769619;80;21164;-59
2020/12/01 11:42:52;;;;;;;45.88;19.02;;;;;;;1.67;100.00;101578.03;1795383;80;21058;-59
2020/12/01 11:45:21;;;;;;;44.20;18.10;;;;;;;1.66;100.00;101567.00;1795341;80;20944;-59
2020/12/01 11:47:48;;;;;;;40.80;16.70;;;;;;;1.66;100.00;101559.06;1795262;80;21128;-60
2020/12/01 11:50:16;;;;;;;45.67;19.27;;;;;;;1.68;100.00;101567.91;1795382;80;21443;-59
2020/12/01 11:52:44;;;;;;;42.78;18.35;;;;;;;1.67;100.00;101550.27;1795406;80;21109;-59
2020/12/01 11:55:13;;;;;;;47.23;17.77;;;;;;;1.69;100.00;101552.50;1793958;79;21143;-58
2020/12/01 11:57:41;;;;;;;43.55;18.02;;;;;;;1.71;100.00;101549.86;1795096;80;21149;-59
2020/12/01 12:00:09;;;;;;;47.20;19.23;;;;;;;1.72;100.00;101542.37;1776870;80;20960;-59
2020/12/01 12:02:42;;;;;;;52.77;18.23;;;;;;;1.74;100.00;101548.58;1756115;80;21351;-59
2020/12/01 12:05:10;;;;;;;43.30;18.45;;;;;;;1.79;100.00;101551.30;1755475;81;21065;-59
2020/12/01 12:07:37;;;;;;;34.43;16.12;;;;;;;1.79;100.00;101568.48;1755512;81;21018;-59
2020/12/01 12:10:07;;;;;;;44.48;18.15;;;;;;;1.78;100.00;101557.03;1775899;80;21434;-59
2020/12/01 12:12:34;;;;;;;38.42;17.07;;;;;;;1.78;100.00;101568.03;1786469;80;21168;-59
2020/12/01 12:15:05;;;;;;;41.33;17.42;;;;;;;1.79;100.00;101560.13;1786687;80;21204;-59
2020/12/01 12:17:32;;;;;;;41.02;15.25;;;;;;;1.77;100.00;101559.22;1791636;79;21092;-59
2020/12/01 12:20:02;;;;;;;39.53;17.48;;;;;;;1.73;100.00;101569.73;1798438;79;21346;-58
2020/12/01 12:22:30;;;;;;;41.50;17.50;;;;;;;1.70;100.00;101565.27;1798427;79;21181;-59
2020/12/01 12:24:58;;;;;;;45.90;16.57;;;;;;;1.68;100.00;101574.52;1798405;79;21118;-60
2020/12/01 12:27:26;;;;;;;42.43;18.37;;;;;;;1.66;100.00;101568.31;1798393;79;21682;-60